Time,TemperatureF,DewpointF,PressureIn,WindDirection,WindDirectionDegrees,WindSpeedMPH,WindSpeedGustMPH,Humidity,HourlyPrecipIn,Conditions,Clouds,dailyrainin,SolarRadiationWatts/m^2,SoftwareType,DateUTC
2013-01-31 00:07:00,32.9,25.0,30.05,WNW,286,2.0,-999.0,74,-99.99,,,0.00,0,weatherlink.com 1.10,2013-01-31 06:07:00,
2013-01-31 00:22:00,32.7,26.0,30.05,NW,314,4.0,-999.0,75,-99.99,,,0.00,0,weatherlink.com 1.10,2013-01-31 06:22:00,
2013-01-31 00:37:00,32.5,25.0,30.06,NW,313,3.0,-999.0,75,-99.99,,,0.00,0,weatherlink.com 1.10,2013-01-31 06:37:00,
2013-01-31 00:52:00,32.3,25.0,30.05,WNW,282,0.0,-999.0,74,-99.99,,,0.00,0,weatherlink.com 1.10,2013-01-31 06:52:00,
2013-01-31 01:07:00,32.0,24.0,30.05,WSW,238,1.0,-999.0,73,-99.99,,,0.00,0,weatherlink.com 1.10,2013-01-31 07:07:00,
2013-01-31 01:22:00,31.8,24.0,30.05,WNW,287,0.0,-999.0,73,-99.99,,,0.00,0,weatherlink.com 1.10,2013-01-31 07:22:00,
2013-01-31 01:37:00,31.5,24.0,30.06,West,279,0.0,-999.0,74,-99.99,,,0.00,0,weatherlink.com 1.10,2013-01-31 07:37:00,
2013-01-31 01:52:00,31.2,24.0,30.06,West,263,2.0,-999.0,74,-99.99,,,0.00,0,weatherlink.com 1.10,2013-01-31 07:52:00,
2013-01-31 02:07:00,30.9,24.0,30.06,WNW,296,0.0,-999.0,76,-99.99,,,0.00,0,weatherlink.com 1.10,2013-01-31 08:07:00,
2013-01-31 02:22:00,30.6,24.0,30.06,WNW,296,0.0,-999.0,77,-99.99,,,0.00,0,weatherlink.com 1.10,2013-01-31 08:22:00,
2013-01-31 02:37:00,30.3,25.0,30.07,WNW,296,0.0,-999.0,79,-99.99,,,0.00,0,weatherlink.com 1.10,2013-01-31 08:37:00,
2013-01-31 02:52:00,29.9,24.0,30.06,WNW,296,0.0,-999.0,79,-99.99,,,0.00,0,weatherlink.com 1.10,2013-01-31 08:52:00,
2013-01-31 03:07:00,29.5,24.0,30.07,WNW,296,0.0,-999.0,79,-99.99,,,0.00,0,weatherlink.com 1.10,2013-01-31 09:07:00,
2013-01-31 03:22:00,29.1,24.0,30.07,WNW,296,0.0,-999.0,81,-99.99,,,0.00,0,weatherlink.com 1.10,2013-01-31 09:22:00,
2013-01-31 03:37:00,28.8,24.0,30.06,WNW,296,0.0,-999.0,82,-99.99,,,0.00,0,weatherlink.com 1.10,2013-01-31 09:37:00,
2013-01-31 03:52:00,28.6,24.0,30.06,WNW,296,0.0,-999.0,83,-99.99,,,0.00,0,weatherlink.com 1.10,2013-01-31 09:52:00,
2013-01-31 04:07:00,28.4,24.0,30.06,WNW,296,0.0,-999.0,83,-99.99,,,0.00,0,weatherlink.com 1.10,2013-01-31 10:07:00,
2013-01-31 04:22:00,28.3,24.0,30.07,WNW,296,0.0,-999.0,85,-99.99,,,0.00,0,weatherlink.com 1.10,2013-01-31 10:22:00,
2013-01-31 04:37:00,28.4,25.0,30.07,WNW,296,0.0,-999.0,85,-99.99,,,0.00,0,weatherlink.com 1.10,2013-01-31 10:37:00,
2013-01-31 04:52:00,28.4,25.0,30.07,WNW,296,0.0,-999.0,85,-99.99,,,0.00,0,weatherlink.com 1.10,2013-01-31 10:52:00,
2013-01-31 05:07:00,28.3,24.0,30.08,WNW,296,0.0,-999.0,85,-99.99,,,0.00,0,weatherlink.com 1.10,2013-01-31 11:07:00,
2013-01-31 05:22:00,28.1,25.0,30.09,WNW,296,0.0,-999.0,86,-99.99,,,0.00,0,weatherlink.com 1.10,2013-01-31 11:22:00,
2013-01-31 05:37:00,27.9,24.0,30.11,WNW,296,0.0,-999.0,86,-99.99,,,0.00,0,weatherlink.com 1.10,2013-01-31 11:37:00,
2013-01-31 05:52:00,27.7,24.0,30.11,West,277,0.0,-999.0,87,-99.99,,,0.00,0,weatherlink.com 1.10,2013-01-31 11:52:00,
2013-01-31 06:07:00,27.9,25.0,30.12,West,277,3.0,-999.0,87,-99.99,,,0.00,0,weatherlink.com 1.10,2013-01-31 12:07:00,
2013-01-31 06:22:00,28.2,25.0,30.13,West,275,2.0,-999.0,87,-99.99,,,0.00,0,weatherlink.com 1.10,2013-01-31 12:22:00,
2013-01-31 06:37:00,28.5,25.0,30.13,WSW,255,0.0,-999.0,86,-99.99,,,0.00,0,weatherlink.com 1.10,2013-01-31 12:37:00,
2013-01-31 06:52:00,28.6,25.0,30.14,WSW,255,1.0,-999.0,85,-99.99,,,0.00,0,weatherlink.com 1.10,2013-01-31 12:52:00,
2013-01-31 07:07:00,28.6,25.0,30.14,West,266,0.0,-999.0,85,-99.99,,,0.00,7,weatherlink.com 1.10,2013-01-31 13:07:00,
2013-01-31 07:22:00,28.7,25.0,30.14,West,266,0.0,-999.0,85,-99.99,,,0.00,16,weatherlink.com 1.10,2013-01-31 13:22:00,
2013-01-31 07:37:00,28.6,25.0,30.15,West,266,0.0,-999.0,85,-99.99,,,0.00,21,weatherlink.com 1.10,2013-01-31 13:37:00,
2013-01-31 07:53:00,28.8,25.0,30.16,West,266,1.0,-999.0,86,-99.99,,,0.00,28,weatherlink.com 1.10,2013-01-31 13:53:00,
2013-01-31 08:08:00,29.5,26.0,30.17,SW,234,0.0,-999.0,86,-99.99,,,0.00,32,weatherlink.com 1.10,2013-01-31 14:08:00,
2013-01-31 08:23:00,30.3,26.0,30.17,WSW,241,1.0,-999.0,85,-99.99,,,0.00,37,weatherlink.com 1.10,2013-01-31 14:23:00,
2013-01-31 08:38:00,31.2,26.0,30.18,WSW,246,1.0,-999.0,81,-99.99,,,0.00,39,weatherlink.com 1.10,2013-01-31 14:38:00,
2013-01-31 08:53:00,31.9,26.0,30.19,WSW,253,0.0,-999.0,79,-99.99,,,0.00,42,weatherlink.com 1.10,2013-01-31 14:53:00,
2013-01-31 09:08:00,32.8,26.0,30.20,WSW,254,2.0,-999.0,77,-99.99,,,0.00,49,weatherlink.com 1.10,2013-01-31 15:08:00,
2013-01-31 09:23:00,33.6,26.0,30.20,WSW,251,3.0,-999.0,73,-99.99,,,0.00,72,weatherlink.com 1.10,2013-01-31 15:23:00,
2013-01-31 09:38:00,34.4,27.0,30.20,SSW,193,0.0,-999.0,73,-99.99,,,0.00,58,weatherlink.com 1.10,2013-01-31 15:38:00,
2013-01-31 09:53:00,36.3,27.0,30.19,South,184,5.0,-999.0,69,-99.99,,,0.00,54,weatherlink.com 1.10,2013-01-31 15:53:00,
2013-01-31 10:08:00,37.5,27.0,30.19,WSW,255,2.0,-999.0,66,-99.99,,,0.00,174,weatherlink.com 1.10,2013-01-31 16:08:00,
2013-01-31 10:23:00,38.4,28.0,30.19,SSW,193,3.0,-999.0,66,-99.99,,,0.00,269,weatherlink.com 1.10,2013-01-31 16:23:00,
2013-01-31 10:38:00,39.0,27.0,30.19,South,182,1.0,-999.0,63,-99.99,,,0.00,70,weatherlink.com 1.10,2013-01-31 16:38:00,
2013-01-31 10:53:00,40.0,29.0,30.18,SW,226,2.0,-999.0,64,-99.99,,,0.00,81,weatherlink.com 1.10,2013-01-31 16:53:00,
2013-01-31 11:08:00,40.6,30.0,30.18,SSW,213,2.0,-999.0,67,-99.99,,,0.00,167,weatherlink.com 1.10,2013-01-31 17:08:00,
2013-01-31 11:23:00,41.7,30.0,30.17,SW,234,3.0,-999.0,63,-99.99,,,0.00,459,weatherlink.com 1.10,2013-01-31 17:23:00,
2013-01-31 11:38:00,42.1,29.0,30.16,South,175,1.0,-999.0,60,-99.99,,,0.00,647,weatherlink.com 1.10,2013-01-31 17:38:00,
2013-01-31 11:53:00,43.1,28.0,30.15,South,186,2.0,-999.0,56,-99.99,,,0.00,118,weatherlink.com 1.10,2013-01-31 17:53:00,
2013-01-31 12:08:00,43.8,29.0,30.15,SSW,196,2.0,-999.0,57,-99.99,,,0.00,246,weatherlink.com 1.10,2013-01-31 18:08:00,
2013-01-31 12:23:00,45.5,28.0,30.13,SSW,205,1.0,-999.0,50,-99.99,,,0.00,153,weatherlink.com 1.10,2013-01-31 18:23:00,
2013-01-31 12:38:00,46.5,29.0,30.12,SSW,205,2.0,-999.0,51,-99.99,,,0.00,362,weatherlink.com 1.10,2013-01-31 18:38:00,
2013-01-31 12:53:00,47.4,29.0,30.12,SW,231,4.0,-999.0,50,-99.99,,,0.00,394,weatherlink.com 1.10,2013-01-31 18:53:00,
2013-01-31 13:08:00,48.3,32.0,30.11,SSW,194,0.0,-999.0,53,-99.99,,,0.00,640,weatherlink.com 1.10,2013-01-31 19:08:00,
2013-01-31 13:23:00,48.9,32.0,30.10,WSW,246,4.0,-999.0,52,-99.99,,,0.00,638,weatherlink.com 1.10,2013-01-31 19:23:00,
2013-01-31 13:39:00,49.9,33.0,30.09,South,182,2.0,-999.0,52,-99.99,,,0.00,153,weatherlink.com 1.10,2013-01-31 19:39:00,
2013-01-31 13:54:00,50.4,34.0,30.09,South,188,3.0,-999.0,53,-99.99,,,0.00,72,weatherlink.com 1.10,2013-01-31 19:54:00,
2013-01-31 14:09:00,50.9,33.0,30.08,SW,231,2.0,-999.0,51,-99.99,,,0.00,58,weatherlink.com 1.10,2013-01-31 20:09:00,
2013-01-31 14:24:00,49.9,34.0,30.08,SW,222,1.0,-999.0,54,-99.99,,,0.00,97,weatherlink.com 1.10,2013-01-31 20:24:00,
2013-01-31 14:39:00,50.7,35.0,30.07,South,182,3.0,-999.0,55,-99.99,,,0.00,39,weatherlink.com 1.10,2013-01-31 20:39:00,
2013-01-31 14:54:00,51.3,34.0,30.07,South,184,5.0,-999.0,53,-99.99,,,0.00,42,weatherlink.com 1.10,2013-01-31 20:54:00,
2013-01-31 15:09:00,51.6,36.0,30.07,South,189,2.0,-999.0,55,-99.99,,,0.00,44,weatherlink.com 1.10,2013-01-31 21:09:00,
2013-01-31 15:24:00,51.7,36.0,30.08,SW,232,2.0,-999.0,55,-99.99,,,0.00,32,weatherlink.com 1.10,2013-01-31 21:24:00,
2013-01-31 15:39:00,51.9,36.0,30.08,South,189,4.0,-999.0,54,-99.99,,,0.00,216,weatherlink.com 1.10,2013-01-31 21:39:00,
2013-01-31 15:54:00,51.8,35.0,30.08,SW,217,5.0,-999.0,54,-99.99,,,0.00,47,weatherlink.com 1.10,2013-01-31 21:54:00,
2013-01-31 16:09:00,52.2,36.0,30.08,SSW,205,2.0,-999.0,54,-99.99,,,0.00,62,weatherlink.com 1.10,2013-01-31 22:09:00,
2013-01-31 16:24:00,51.9,36.0,30.09,SSW,208,0.0,-999.0,54,-99.99,,,0.00,74,weatherlink.com 1.10,2013-01-31 22:24:00,
2013-01-31 16:39:00,51.3,35.0,30.09,South,180,2.0,-999.0,55,-99.99,,,0.00,39,weatherlink.com 1.10,2013-01-31 22:39:00,
2013-01-31 16:54:00,51.2,36.0,30.09,SW,232,1.0,-999.0,56,-99.99,,,0.00,12,weatherlink.com 1.10,2013-01-31 22:54:00,
2013-01-31 17:09:00,50.8,35.0,30.09,SSW,198,2.0,-999.0,55,-99.99,,,0.00,9,weatherlink.com 1.10,2013-01-31 23:09:00,
2013-01-31 17:24:00,50.3,35.0,30.09,SW,220,3.0,-999.0,56,-99.99,,,0.00,0,weatherlink.com 1.10,2013-01-31 23:24:00,
2013-01-31 17:39:00,49.6,35.0,30.09,South,189,1.0,-999.0,57,-99.99,,,0.00,0,weatherlink.com 1.10,2013-01-31 23:39:00,
2013-01-31 17:54:00,49.0,35.0,30.10,South,189,0.0,-999.0,59,-99.99,,,0.00,0,weatherlink.com 1.10,2013-01-31 23:54:00,
2013-01-31 18:09:00,48.5,35.0,30.10,South,189,0.0,-999.0,60,-99.99,,,0.00,0,weatherlink.com 1.10,2013-02-01 00:09:00,
2013-01-31 18:24:00,47.4,35.0,30.11,South,189,0.0,-999.0,62,-99.99,,,0.00,0,weatherlink.com 1.10,2013-02-01 00:24:00,
2013-01-31 18:39:00,46.0,36.0,30.11,South,189,0.0,-999.0,67,-99.99,,,0.00,0,weatherlink.com 1.10,2013-02-01 00:39:00,
2013-01-31 18:54:00,45.1,35.0,30.12,South,189,0.0,-999.0,68,-99.99,,,0.00,0,weatherlink.com 1.10,2013-02-01 00:54:00,
2013-01-31 19:09:00,45.0,35.0,30.14,NW,313,1.0,-999.0,68,-99.99,,,0.00,0,weatherlink.com 1.10,2013-02-01 01:09:00,
2013-01-31 19:24:00,46.8,35.0,30.16,NW,313,2.0,-999.0,65,-99.99,,,0.00,0,weatherlink.com 1.10,2013-02-01 01:24:00,
2013-01-31 19:39:00,47.7,34.0,30.16,NW,315,4.0,-999.0,60,-99.99,,,0.00,0,weatherlink.com 1.10,2013-02-01 01:39:00,
2013-01-31 19:54:00,47.4,33.0,30.18,NW,310,4.0,-999.0,58,-99.99,,,0.00,0,weatherlink.com 1.10,2013-02-01 01:54:00,
2013-01-31 20:09:00,46.8,33.0,30.19,NNW,341,3.0,-999.0,58,-99.99,,,0.00,0,weatherlink.com 1.10,2013-02-01 02:09:00,
2013-01-31 20:24:00,45.7,33.0,30.21,NNW,333,3.0,-999.0,61,-99.99,,,0.00,0,weatherlink.com 1.10,2013-02-01 02:24:00,
2013-01-31 20:39:00,44.0,33.0,30.23,NNW,342,6.0,-999.0,66,-99.99,,,0.00,0,weatherlink.com 1.10,2013-02-01 02:39:00,
2013-01-31 20:54:00,41.6,32.0,30.24,NNW,345,5.0,-999.0,69,-99.99,,,0.00,0,weatherlink.com 1.10,2013-02-01 02:54:00,
2013-01-31 21:09:00,39.9,32.0,30.25,NNW,343,5.0,-999.0,72,-99.99,,,0.00,0,weatherlink.com 1.10,2013-02-01 03:09:00,
2013-01-31 21:24:00,38.8,31.0,30.27,NW,324,2.0,-999.0,73,-99.99,,,0.00,0,weatherlink.com 1.10,2013-02-01 03:24:00,
2013-01-31 21:39:00,38.0,30.0,30.27,NW,319,2.0,-999.0,72,-99.99,,,0.00,0,weatherlink.com 1.10,2013-02-01 03:39:00,
2013-01-31 21:54:00,37.2,30.0,30.30,WSW,254,2.0,-999.0,76,-99.99,,,0.00,0,weatherlink.com 1.10,2013-02-01 03:54:00,
2013-01-31 22:09:00,35.8,30.0,30.31,West,275,2.0,-999.0,79,-99.99,,,0.00,0,weatherlink.com 1.10,2013-02-01 04:09:00,
2013-01-31 22:24:00,33.8,29.0,30.32,WSW,241,4.0,-999.0,82,-99.99,,,0.00,0,weatherlink.com 1.10,2013-02-01 04:24:00,
2013-01-31 22:39:00,32.1,28.0,30.34,NNW,334,4.0,-999.0,84,-99.99,,,0.00,0,weatherlink.com 1.10,2013-02-01 04:39:00,
2013-01-31 22:54:00,30.1,25.0,30.33,West,265,5.0,-999.0,82,-99.99,,,0.00,0,weatherlink.com 1.10,2013-02-01 04:54:00,
2013-01-31 23:09:00,29.7,24.0,30.33,WNW,300,2.0,-999.0,78,-99.99,,,0.00,0,weatherlink.com 1.10,2013-02-01 05:09:00,
2013-01-31 23:24:00,30.1,22.0,30.34,WNW,284,6.0,-999.0,73,-99.99,,,0.00,0,weatherlink.com 1.10,2013-02-01 05:24:00,
2013-01-31 23:39:00,30.4,22.0,30.35,NNW,343,2.0,-999.0,70,-99.99,,,0.00,0,weatherlink.com 1.10,2013-02-01 05:39:00,
2013-01-31 23:54:00,30.3,20.0,30.35,NW,311,5.0,-999.0,67,-99.99,,,0.00,0,weatherlink.com 1.10,2013-02-01 05:54:00,